sensor_id;sensor_type;location;lat;lon;timestamp;P1;durP1;ratioP1;P2;durP2;ratioP2
32319;SDS011;19080;51.750;5.888;2023-04-03T00:00:53;5.47;;;4.28;;
32319;SDS011;19080;51.750;5.888;2023-04-03T00:03:20;5.72;;;3.88;;
32319;SDS011;19080;51.750;5.888;2023-04-03T00:05:47;8.15;;;4.30;;
32319;SDS011;19080;51.750;5.888;2023-04-03T00:08:14;6.45;;;4.28;;
32319;SDS011;19080;51.750;5.888;2023-04-03T00:10:41;6.53;;;4.15;;
32319;SDS011;19080;51.750;5.888;2023-04-03T00:13:08;6.80;;;4.63;;
32319;SDS011;19080;51.750;5.888;2023-04-03T00:15:36;4.95;;;3.50;;
32319;SDS011;19080;51.750;5.888;2023-04-03T00:18:03;5.68;;;3.63;;
32319;SDS011;19080;51.750;5.888;2023-04-03T00:20:31;4.32;;;3.80;;
32319;SDS011;19080;51.750;5.888;2023-04-03T00:22:58;5.97;;;3.55;;
32319;SDS011;19080;51.750;5.888;2023-04-03T00:25:25;6.25;;;3.80;;
32319;SDS011;19080;51.750;5.888;2023-04-03T00:27:51;5.78;;;3.95;;
32319;SDS011;19080;51.750;5.888;2023-04-03T00:30:19;5.47;;;3.63;;
32319;SDS011;19080;51.750;5.888;2023-04-03T00:32:50;5.07;;;3.67;;
32319;SDS011;19080;51.750;5.888;2023-04-03T00:35:19;3.28;;;2.97;;
32319;SDS011;19080;51.750;5.888;2023-04-03T00:37:47;4.38;;;3.30;;
32319;SDS011;19080;51.750;5.888;2023-04-03T00:40:15;7.13;;;2.92;;
32319;SDS011;19080;51.750;5.888;2023-04-03T00:42:42;5.13;;;3.00;;
32319;SDS011;19080;51.750;5.888;2023-04-03T00:47:37;5.43;;;3.53;;
32319;SDS011;19080;51.750;5.888;2023-04-03T00:50:06;6.47;;;2.38;;
32319;SDS011;19080;51.750;5.888;2023-04-03T00:52:33;3.05;;;2.75;;
32319;SDS011;19080;51.750;5.888;2023-04-03T00:55:01;6.13;;;2.72;;
32319;SDS011;19080;51.750;5.888;2023-04-03T00:57:30;5.22;;;2.80;;
32319;SDS011;19080;51.750;5.888;2023-04-03T00:59:59;9.35;;;3.35;;
32319;SDS011;19080;51.750;5.888;2023-04-03T01:02:31;4.63;;;2.67;;
32319;SDS011;19080;51.750;5.888;2023-04-03T01:04:58;5.10;;;2.97;;
32319;SDS011;19080;51.750;5.888;2023-04-03T01:07:31;6.40;;;2.60;;
32319;SDS011;19080;51.750;5.888;2023-04-03T01:10:01;6.28;;;3.42;;
32319;SDS011;19080;51.750;5.888;2023-04-03T01:12:32;4.38;;;2.90;;
32319;SDS011;19080;51.750;5.888;2023-04-03T01:18:01;4.15;;;2.47;;
32319;SDS011;19080;51.750;5.888;2023-04-03T01:25:29;6.20;;;2.35;;
32319;SDS011;19080;51.750;5.888;2023-04-03T01:27:58;6.93;;;2.67;;
32319;SDS011;19080;51.750;5.888;2023-04-03T01:30:26;6.47;;;2.30;;
32319;SDS011;19080;51.750;5.888;2023-04-03T01:32:58;3.65;;;2.10;;
32319;SDS011;19080;51.750;5.888;2023-04-03T01:35:25;6.03;;;2.05;;
32319;SDS011;19080;51.750;5.888;2023-04-03T01:37:52;4.03;;;2.55;;
32319;SDS011;19080;51.750;5.888;2023-04-03T01:40:19;5.40;;;2.40;;
32319;SDS011;19080;51.750;5.888;2023-04-03T01:42:46;4.32;;;2.15;;
32319;SDS011;19080;51.750;5.888;2023-04-03T01:45:13;7.00;;;2.42;;
32319;SDS011;19080;51.750;5.888;2023-04-03T01:47:39;3.92;;;1.80;;
32319;SDS011;19080;51.750;5.888;2023-04-03T01:50:06;5.13;;;1.85;;
32319;SDS011;19080;51.750;5.888;2023-04-03T01:52:33;3.72;;;2.10;;
32319;SDS011;19080;51.750;5.888;2023-04-03T01:55:00;4.25;;;1.80;;
32319;SDS011;19080;51.750;5.888;2023-04-03T01:57:27;3.45;;;2.08;;
32319;SDS011;19080;51.750;5.888;2023-04-03T01:59:54;6.75;;;2.05;;
32319;SDS011;19080;51.750;5.888;2023-04-03T02:02:21;4.72;;;2.00;;
32319;SDS011;19080;51.750;5.888;2023-04-03T02:04:47;2.22;;;1.77;;
32319;SDS011;19080;51.750;5.888;2023-04-03T02:07:14;3.10;;;2.00;;
32319;SDS011;19080;51.750;5.888;2023-04-03T02:09:41;2.80;;;1.60;;
32319;SDS011;19080;51.750;5.888;2023-04-03T02:12:08;3.53;;;2.35;;
32319;SDS011;19080;51.750;5.888;2023-04-03T02:14:34;3.15;;;1.70;;
32319;SDS011;19080;51.750;5.888;2023-04-03T02:17:02;3.92;;;1.70;;
32319;SDS011;19080;51.750;5.888;2023-04-03T02:19:35;6.45;;;2.13;;
32319;SDS011;19080;51.750;5.888;2023-04-03T02:22:02;7.78;;;1.90;;
32319;SDS011;19080;51.750;5.888;2023-04-03T02:24:30;4.25;;;1.80;;
32319;SDS011;19080;51.750;5.888;2023-04-03T02:26:58;4.32;;;2.13;;
32319;SDS011;19080;51.750;5.888;2023-04-03T02:29:25;4.65;;;2.00;;
32319;SDS011;19080;51.750;5.888;2023-04-03T02:31:52;5.55;;;1.83;;
32319;SDS011;19080;51.750;5.888;2023-04-03T02:34:21;4.93;;;1.98;;
32319;SDS011;19080;51.750;5.888;2023-04-03T02:36:48;5.20;;;1.63;;
32319;SDS011;19080;51.750;5.888;2023-04-03T02:39:17;3.65;;;1.48;;
32319;SDS011;19080;51.750;5.888;2023-04-03T02:41:44;3.45;;;2.00;;
32319;SDS011;19080;51.750;5.888;2023-04-03T02:44:17;2.92;;;1.60;;
32319;SDS011;19080;51.750;5.888;2023-04-03T02:46:45;7.20;;;2.03;;
32319;SDS011;19080;51.750;5.888;2023-04-03T02:49:12;6.40;;;2.05;;
32319;SDS011;19080;51.750;5.888;2023-04-03T02:51:38;4.65;;;1.73;;
32319;SDS011;19080;51.750;5.888;2023-04-03T02:54:05;4.80;;;2.05;;
32319;SDS011;19080;51.750;5.888;2023-04-03T02:56:35;3.25;;;1.45;;
32319;SDS011;19080;51.750;5.888;2023-04-03T02:59:02;3.95;;;2.10;;
32319;SDS011;19080;51.750;5.888;2023-04-03T03:01:29;4.53;;;2.10;;
32319;SDS011;19080;51.750;5.888;2023-04-03T03:03:59;3.47;;;1.75;;
32319;SDS011;19080;51.750;5.888;2023-04-03T03:06:26;5.65;;;2.10;;
32319;SDS011;19080;51.750;5.888;2023-04-03T03:08:53;6.53;;;1.88;;
32319;SDS011;19080;51.750;5.888;2023-04-03T03:11:20;3.67;;;1.80;;
32319;SDS011;19080;51.750;5.888;2023-04-03T03:13:47;4.07;;;1.98;;
32319;SDS011;19080;51.750;5.888;2023-04-03T03:16:14;4.28;;;1.52;;
32319;SDS011;19080;51.750;5.888;2023-04-03T03:18:40;6.53;;;2.20;;
32319;SDS011;19080;51.750;5.888;2023-04-03T03:21:08;4.75;;;2.05;;
32319;SDS011;19080;51.750;5.888;2023-04-03T03:23:37;8.32;;;2.30;;
32319;SDS011;19080;51.750;5.888;2023-04-03T03:26:05;4.97;;;1.65;;
32319;SDS011;19080;51.750;5.888;2023-04-03T03:28:34;3.97;;;1.92;;
32319;SDS011;19080;51.750;5.888;2023-04-03T03:31:04;2.95;;;1.55;;
32319;SDS011;19080;51.750;5.888;2023-04-03T03:33:33;3.55;;;1.70;;
32319;SDS011;19080;51.750;5.888;2023-04-03T03:36:00;6.20;;;2.10;;
32319;SDS011;19080;51.750;5.888;2023-04-03T03:38:28;3.45;;;2.00;;
32319;SDS011;19080;51.750;5.888;2023-04-03T03:40:55;2.70;;;1.73;;
32319;SDS011;19080;51.750;5.888;2023-04-03T03:43:23;7.32;;;1.73;;
32319;SDS011;19080;51.750;5.888;2023-04-03T03:45:52;6.20;;;2.00;;
32319;SDS011;19080;51.750;5.888;2023-04-03T03:48:21;2.10;;;1.70;;
32319;SDS011;19080;51.750;5.888;2023-04-03T03:50:48;7.90;;;2.03;;
32319;SDS011;19080;51.750;5.888;2023-04-03T03:53:16;3.22;;;1.80;;
32319;SDS011;19080;51.750;5.888;2023-04-03T03:55:43;3.08;;;2.08;;
32319;SDS011;19080;51.750;5.888;2023-04-03T03:58:10;5.43;;;2.30;;
32319;SDS011;19080;51.750;5.888;2023-04-03T04:00:37;3.05;;;1.83;;
32319;SDS011;19080;51.750;5.888;2023-04-03T04:03:03;3.65;;;2.17;;
32319;SDS011;19080;51.750;5.888;2023-04-03T04:05:31;4.97;;;1.85;;
32319;SDS011;19080;51.750;5.888;2023-04-03T04:07:59;3.78;;;1.70;;
32319;SDS011;19080;51.750;5.888;2023-04-03T04:10:26;4.57;;;1.80;;
32319;SDS011;19080;51.750;5.888;2023-04-03T04:12:54;9.10;;;1.70;;
32319;SDS011;19080;51.750;5.888;2023-04-03T04:15:25;5.45;;;2.13;;
32319;SDS011;19080;51.750;5.888;2023-04-03T04:17:54;6.63;;;2.10;;
32319;SDS011;19080;51.750;5.888;2023-04-03T04:20:21;6.47;;;2.17;;
32319;SDS011;19080;51.750;5.888;2023-04-03T04:22:48;5.10;;;1.98;;
32319;SDS011;19080;51.750;5.888;2023-04-03T04:25:17;3.67;;;1.83;;
32319;SDS011;19080;51.750;5.888;2023-04-03T04:27:44;4.32;;;2.28;;
32319;SDS011;19080;51.750;5.888;2023-04-03T04:30:13;5.30;;;2.05;;
32319;SDS011;19080;51.750;5.888;2023-04-03T04:32:41;6.90;;;2.20;;
32319;SDS011;19080;51.750;5.888;2023-04-03T04:35:07;6.13;;;2.13;;
32319;SDS011;19080;51.750;5.888;2023-04-03T04:37:38;7.03;;;1.90;;
32319;SDS011;19080;51.750;5.888;2023-04-03T04:40:05;5.45;;;2.10;;
32319;SDS011;19080;51.750;5.888;2023-04-03T04:42:33;2.83;;;2.20;;
32319;SDS011;19080;51.750;5.888;2023-04-03T04:45:00;3.60;;;1.90;;
32319;SDS011;19080;51.750;5.888;2023-04-03T04:47:28;6.53;;;2.00;;
32319;SDS011;19080;51.750;5.888;2023-04-03T04:49:56;6.63;;;2.47;;
32319;SDS011;19080;51.750;5.888;2023-04-03T04:52:23;5.30;;;2.05;;
32319;SDS011;19080;51.750;5.888;2023-04-03T04:54:50;4.22;;;2.13;;
32319;SDS011;19080;51.750;5.888;2023-04-03T04:57:17;3.92;;;2.10;;
32319;SDS011;19080;51.750;5.888;2023-04-03T04:59:44;6.93;;;2.92;;
32319;SDS011;19080;51.750;5.888;2023-04-03T05:02:11;4.78;;;1.95;;
32319;SDS011;19080;51.750;5.888;2023-04-03T05:04:39;4.53;;;2.28;;
32319;SDS011;19080;51.750;5.888;2023-04-03T05:07:12;4.90;;;2.08;;
32319;SDS011;19080;51.750;5.888;2023-04-03T05:09:38;6.10;;;1.77;;
32319;SDS011;19080;51.750;5.888;2023-04-03T05:12:09;3.58;;;2.10;;
32319;SDS011;19080;51.750;5.888;2023-04-03T05:14:41;7.32;;;2.55;;
32319;SDS011;19080;51.750;5.888;2023-04-03T05:17:09;3.38;;;1.90;;
32319;SDS011;19080;51.750;5.888;2023-04-03T05:19:39;4.28;;;2.20;;
32319;SDS011;19080;51.750;5.888;2023-04-03T05:22:07;10.77;;;2.55;;
32319;SDS011;19080;51.750;5.888;2023-04-03T05:24:35;3.17;;;2.00;;
32319;SDS011;19080;51.750;5.888;2023-04-03T05:27:03;7.55;;;2.55;;
32319;SDS011;19080;51.750;5.888;2023-04-03T05:29:34;4.18;;;2.20;;
32319;SDS011;19080;51.750;5.888;2023-04-03T05:32:02;7.85;;;1.90;;
32319;SDS011;19080;51.750;5.888;2023-04-03T05:34:29;9.18;;;2.30;;
32319;SDS011;19080;51.750;5.888;2023-04-03T05:36:56;5.18;;;2.38;;
32319;SDS011;19080;51.750;5.888;2023-04-03T05:39:24;8.90;;;2.20;;
32319;SDS011;19080;51.750;5.888;2023-04-03T05:41:51;6.22;;;2.90;;
32319;SDS011;19080;51.750;5.888;2023-04-03T05:44:18;6.15;;;2.75;;
32319;SDS011;19080;51.750;5.888;2023-04-03T05:46:48;6.85;;;2.35;;
32319;SDS011;19080;51.750;5.888;2023-04-03T05:49:15;6.65;;;2.45;;
32319;SDS011;19080;51.750;5.888;2023-04-03T05:51:41;5.68;;;2.47;;
32319;SDS011;19080;51.750;5.888;2023-04-03T05:54:24;3.85;;;1.90;;
32319;SDS011;19080;51.750;5.888;2023-04-03T05:56:59;4.07;;;2.88;;
32319;SDS011;19080;51.750;5.888;2023-04-03T05:59:26;6.60;;;2.42;;
32319;SDS011;19080;51.750;5.888;2023-04-03T06:01:56;4.78;;;2.08;;
32319;SDS011;19080;51.750;5.888;2023-04-03T06:04:23;5.38;;;2.00;;
32319;SDS011;19080;51.750;5.888;2023-04-03T06:06:52;5.43;;;2.35;;
32319;SDS011;19080;51.750;5.888;2023-04-03T06:09:21;8.13;;;2.40;;
32319;SDS011;19080;51.750;5.888;2023-04-03T06:11:49;8.82;;;2.33;;
32319;SDS011;19080;51.750;5.888;2023-04-03T06:14:16;5.28;;;2.40;;
32319;SDS011;19080;51.750;5.888;2023-04-03T06:16:43;3.38;;;1.70;;
32319;SDS011;19080;51.750;5.888;2023-04-03T06:19:11;4.55;;;1.88;;
32319;SDS011;19080;51.750;5.888;2023-04-03T06:21:43;4.00;;;2.00;;
32319;SDS011;19080;51.750;5.888;2023-04-03T06:24:12;6.07;;;2.33;;
32319;SDS011;19080;51.750;5.888;2023-04-03T06:26:41;6.10;;;2.08;;
32319;SDS011;19080;51.750;5.888;2023-04-03T06:29:08;5.85;;;2.03;;
32319;SDS011;19080;51.750;5.888;2023-04-03T06:31:35;3.97;;;1.90;;
32319;SDS011;19080;51.750;5.888;2023-04-03T06:34:05;4.82;;;1.67;;
32319;SDS011;19080;51.750;5.888;2023-04-03T06:36:36;3.20;;;1.88;;
32319;SDS011;19080;51.750;5.888;2023-04-03T06:39:03;4.53;;;1.60;;
32319;SDS011;19080;51.750;5.888;2023-04-03T06:41:31;4.57;;;1.85;;
32319;SDS011;19080;51.750;5.888;2023-04-03T06:43:57;4.50;;;1.88;;
32319;SDS011;19080;51.750;5.888;2023-04-03T06:46:25;7.03;;;2.00;;
32319;SDS011;19080;51.750;5.888;2023-04-03T06:48:53;4.53;;;2.22;;
32319;SDS011;19080;51.750;5.888;2023-04-03T06:51:21;8.25;;;2.13;;
32319;SDS011;19080;51.750;5.888;2023-04-03T06:53:56;4.97;;;1.80;;
32319;SDS011;19080;51.750;5.888;2023-04-03T06:56:24;6.13;;;2.05;;
32319;SDS011;19080;51.750;5.888;2023-04-03T06:58:53;5.63;;;1.90;;
32319;SDS011;19080;51.750;5.888;2023-04-03T07:01:22;11.07;;;1.73;;
32319;SDS011;19080;51.750;5.888;2023-04-03T07:03:51;4.03;;;2.20;;
32319;SDS011;19080;51.750;5.888;2023-04-03T07:06:20;6.18;;;2.13;;
32319;SDS011;19080;51.750;5.888;2023-04-03T07:08:47;4.65;;;1.67;;
32319;SDS011;19080;51.750;5.888;2023-04-03T07:11:17;4.40;;;2.08;;
32319;SDS011;19080;51.750;5.888;2023-04-03T07:13:44;6.90;;;2.08;;
32319;SDS011;19080;51.750;5.888;2023-04-03T07:16:11;4.57;;;1.85;;
32319;SDS011;19080;51.750;5.888;2023-04-03T07:18:37;8.20;;;2.33;;
32319;SDS011;19080;51.750;5.888;2023-04-03T07:21:05;5.35;;;1.85;;
32319;SDS011;19080;51.750;5.888;2023-04-03T07:23:32;4.13;;;1.83;;
32319;SDS011;19080;51.750;5.888;2023-04-03T07:25:59;6.53;;;2.17;;
32319;SDS011;19080;51.750;5.888;2023-04-03T07:28:26;8.95;;;2.42;;
32319;SDS011;19080;51.750;5.888;2023-04-03T07:30:54;3.97;;;2.17;;
32319;SDS011;19080;51.750;5.888;2023-04-03T07:33:26;5.50;;;1.92;;
32319;SDS011;19080;51.750;5.888;2023-04-03T07:35:52;4.05;;;1.85;;
32319;SDS011;19080;51.750;5.888;2023-04-03T07:38:19;4.07;;;2.00;;
32319;SDS011;19080;51.750;5.888;2023-04-03T07:40:49;4.93;;;2.10;;
32319;SDS011;19080;51.750;5.888;2023-04-03T07:43:17;7.05;;;2.58;;
32319;SDS011;19080;51.750;5.888;2023-04-03T07:45:44;3.97;;;1.90;;
32319;SDS011;19080;51.750;5.888;2023-04-03T07:48:11;3.50;;;1.52;;
32319;SDS011;19080;51.750;5.888;2023-04-03T07:50:42;5.00;;;1.85;;
32319;SDS011;19080;51.750;5.888;2023-04-03T07:53:09;6.20;;;1.50;;
32319;SDS011;19080;51.750;5.888;2023-04-03T07:55:36;3.15;;;2.10;;
32319;SDS011;19080;51.750;5.888;2023-04-03T07:58:10;4.75;;;1.98;;
32319;SDS011;19080;51.750;5.888;2023-04-03T08:00:37;4.10;;;1.50;;
32319;SDS011;19080;51.750;5.888;2023-04-03T08:03:06;4.78;;;1.50;;
32319;SDS011;19080;51.750;5.888;2023-04-03T08:05:40;3.75;;;1.45;;
32319;SDS011;19080;51.750;5.888;2023-04-03T08:08:09;4.72;;;1.27;;
32319;SDS011;19080;51.750;5.888;2023-04-03T08:10:39;4.72;;;1.63;;
32319;SDS011;19080;51.750;5.888;2023-04-03T08:13:06;4.10;;;1.70;;
32319;SDS011;19080;51.750;5.888;2023-04-03T08:15:33;2.35;;;1.30;;
32319;SDS011;19080;51.750;5.888;2023-04-03T08:18:00;3.83;;;1.85;;
32319;SDS011;19080;51.750;5.888;2023-04-03T08:20:28;4.20;;;1.30;;
32319;SDS011;19080;51.750;5.888;2023-04-03T08:22:55;3.28;;;1.33;;
32319;SDS011;19080;51.750;5.888;2023-04-03T08:25:22;5.40;;;1.92;;
32319;SDS011;19080;51.750;5.888;2023-04-03T08:27:49;3.95;;;1.77;;
32319;SDS011;19080;51.750;5.888;2023-04-03T08:30:15;2.67;;;1.52;;
32319;SDS011;19080;51.750;5.888;2023-04-03T08:32:42;5.95;;;1.50;;
32319;SDS011;19080;51.750;5.888;2023-04-03T08:35:10;3.30;;;1.50;;
32319;SDS011;19080;51.750;5.888;2023-04-03T08:37:37;4.85;;;1.50;;
32319;SDS011;19080;51.750;5.888;2023-04-03T08:40:06;4.43;;;1.67;;
32319;SDS011;19080;51.750;5.888;2023-04-03T08:45:26;1.45;;;1.17;;
32319;SDS011;19080;51.750;5.888;2023-04-03T08:48:18;2.47;;;1.30;;
32319;SDS011;19080;51.750;5.888;2023-04-03T08:50:55;3.83;;;1.10;;
32319;SDS011;19080;51.750;5.888;2023-04-03T08:53:29;3.63;;;1.77;;
32319;SDS011;19080;51.750;5.888;2023-04-03T08:56:02;2.90;;;1.02;;
32319;SDS011;19080;51.750;5.888;2023-04-03T08:58:34;1.95;;;1.17;;
32319;SDS011;19080;51.750;5.888;2023-04-03T09:01:26;3.13;;;1.17;;
32319;SDS011;19080;51.750;5.888;2023-04-03T09:04:05;4.13;;;1.30;;
32319;SDS011;19080;51.750;5.888;2023-04-03T09:06:39;2.05;;;1.02;;
32319;SDS011;19080;51.750;5.888;2023-04-03T09:15:01;2.75;;;1.52;;
32319;SDS011;19080;51.750;5.888;2023-04-03T09:20:21;2.22;;;0.90;;
32319;SDS011;19080;51.750;5.888;2023-04-03T09:22:57;2.72;;;1.00;;
32319;SDS011;19080;51.750;5.888;2023-04-03T09:25:27;1.33;;;0.90;;
32319;SDS011;19080;51.750;5.888;2023-04-03T09:28:00;1.38;;;0.57;;
32319;SDS011;19080;51.750;5.888;2023-04-03T09:30:28;1.83;;;0.80;;
32319;SDS011;19080;51.750;5.888;2023-04-03T09:32:55;2.17;;;0.80;;
32319;SDS011;19080;51.750;5.888;2023-04-03T09:35:27;1.88;;;0.90;;
32319;SDS011;19080;51.750;5.888;2023-04-03T09:40:50;1.67;;;0.80;;
32319;SDS011;19080;51.750;5.888;2023-04-03T09:43:31;0.98;;;0.70;;
32319;SDS011;19080;51.750;5.888;2023-04-03T09:46:20;1.08;;;0.43;;
32319;SDS011;19080;51.750;5.888;2023-04-03T09:48:57;1.98;;;0.50;;
32319;SDS011;19080;51.750;5.888;2023-04-03T09:51:34;3.05;;;0.80;;
32319;SDS011;19080;51.750;5.888;2023-04-03T09:54:15;0.88;;;0.60;;
32319;SDS011;19080;51.750;5.888;2023-04-03T09:56:51;2.80;;;0.60;;
32319;SDS011;19080;51.750;5.888;2023-04-03T09:59:22;1.65;;;0.60;;
32319;SDS011;19080;51.750;5.888;2023-04-03T10:01:59;1.92;;;0.50;;
32319;SDS011;19080;51.750;5.888;2023-04-03T10:04:37;2.05;;;0.65;;
32319;SDS011;19080;51.750;5.888;2023-04-03T10:07:29;3.28;;;0.60;;
32319;SDS011;19080;51.750;5.888;2023-04-03T10:09:57;3.20;;;0.50;;
32319;SDS011;19080;51.750;5.888;2023-04-03T10:12:25;0.57;;;0.40;;
32319;SDS011;19080;51.750;5.888;2023-04-03T10:14:55;1.10;;;0.47;;
32319;SDS011;19080;51.750;5.888;2023-04-03T10:17:32;1.45;;;0.70;;
32319;SDS011;19080;51.750;5.888;2023-04-03T10:23:01;0.88;;;0.65;;
32319;SDS011;19080;51.750;5.888;2023-04-03T10:25:55;0.75;;;0.35;;
32319;SDS011;19080;51.750;5.888;2023-04-03T10:36:54;3.95;;;0.70;;
32319;SDS011;19080;51.750;5.888;2023-04-03T10:39:36;0.88;;;0.77;;
32319;SDS011;19080;51.750;5.888;2023-04-03T10:47:46;0.77;;;0.60;;
32319;SDS011;19080;51.750;5.888;2023-04-03T10:53:40;2.15;;;0.60;;
32319;SDS011;19080;51.750;5.888;2023-04-03T10:56:30;1.08;;;0.70;;
32319;SDS011;19080;51.750;5.888;2023-04-03T11:01:58;0.85;;;0.57;;
32319;SDS011;19080;51.750;5.888;2023-04-03T11:04:27;1.88;;;0.60;;
32319;SDS011;19080;51.750;5.888;2023-04-03T11:14:55;1.65;;;0.90;;
32319;SDS011;19080;51.750;5.888;2023-04-03T11:17:28;1.08;;;0.50;;
32319;SDS011;19080;51.750;5.888;2023-04-03T11:20:08;3.05;;;0.88;;
32319;SDS011;19080;51.750;5.888;2023-04-03T11:22:54;2.08;;;1.00;;
32319;SDS011;19080;51.750;5.888;2023-04-03T11:25:27;2.88;;;1.00;;
32319;SDS011;19080;51.750;5.888;2023-04-03T11:27:59;1.05;;;0.77;;
32319;SDS011;19080;51.750;5.888;2023-04-03T11:34:04;2.75;;;1.13;;
32319;SDS011;19080;51.750;5.888;2023-04-03T11:36:32;1.63;;;0.90;;
32319;SDS011;19080;51.750;5.888;2023-04-03T11:39:20;2.92;;;0.90;;
32319;SDS011;19080;51.750;5.888;2023-04-03T11:41:50;2.55;;;0.98;;
32319;SDS011;19080;51.750;5.888;2023-04-03T11:44:34;3.53;;;1.17;;
32319;SDS011;19080;51.750;5.888;2023-04-03T11:47:09;1.83;;;1.00;;
32319;SDS011;19080;51.750;5.888;2023-04-03T12:05:55;3.30;;;0.80;;
32319;SDS011;19080;51.750;5.888;2023-04-03T12:16:19;3.35;;;1.17;;
32319;SDS011;19080;51.750;5.888;2023-04-03T12:21:20;3.13;;;1.00;;
32319;SDS011;19080;51.750;5.888;2023-04-03T12:26:40;1.85;;;1.08;;
32319;SDS011;19080;51.750;5.888;2023-04-03T12:29:21;2.58;;;1.05;;
32319;SDS011;19080;51.750;5.888;2023-04-03T12:45:43;1.00;;;0.82;;
32319;SDS011;19080;51.750;5.888;2023-04-03T12:48:15;2.13;;;0.90;;
32319;SDS011;19080;51.750;5.888;2023-04-03T12:50:45;3.35;;;1.38;;
32319;SDS011;19080;51.750;5.888;2023-04-03T12:53:14;1.75;;;1.10;;
32319;SDS011;19080;51.750;5.888;2023-04-03T12:55:44;1.83;;;1.10;;
32319;SDS011;19080;51.750;5.888;2023-04-03T12:58:25;3.83;;;1.40;;
32319;SDS011;19080;51.750;5.888;2023-04-03T13:01:01;3.00;;;1.02;;
32319;SDS011;19080;51.750;5.888;2023-04-03T13:03:29;6.75;;;1.20;;
32319;SDS011;19080;51.750;5.888;2023-04-03T13:05:59;3.83;;;1.23;;
32319;SDS011;19080;51.750;5.888;2023-04-03T13:08:28;2.47;;;1.25;;
32319;SDS011;19080;51.750;5.888;2023-04-03T13:10:56;3.83;;;1.50;;
32319;SDS011;19080;51.750;5.888;2023-04-03T13:15:54;3.08;;;1.27;;
32319;SDS011;19080;51.750;5.888;2023-04-03T13:18:25;2.30;;;1.30;;
32319;SDS011;19080;51.750;5.888;2023-04-03T13:20:52;4.25;;;1.20;;
32319;SDS011;19080;51.750;5.888;2023-04-03T13:23:23;2.47;;;1.35;;
32319;SDS011;19080;51.750;5.888;2023-04-03T13:25:50;3.38;;;1.35;;
32319;SDS011;19080;51.750;5.888;2023-04-03T13:28:19;2.65;;;1.45;;
32319;SDS011;19080;51.750;5.888;2023-04-03T13:30:55;4.20;;;1.33;;
32319;SDS011;19080;51.750;5.888;2023-04-03T13:33:26;3.53;;;1.20;;
32319;SDS011;19080;51.750;5.888;2023-04-03T13:35:55;2.90;;;1.10;;
32319;SDS011;19080;51.750;5.888;2023-04-03T13:38:43;3.45;;;1.27;;
32319;SDS011;19080;51.750;5.888;2023-04-03T13:41:29;6.03;;;1.30;;
32319;SDS011;19080;51.750;5.888;2023-04-03T13:46:48;2.88;;;1.33;;
32319;SDS011;19080;51.750;5.888;2023-04-03T13:52:26;2.97;;;1.30;;
32319;SDS011;19080;51.750;5.888;2023-04-03T13:54:58;2.85;;;1.33;;
32319;SDS011;19080;51.750;5.888;2023-04-03T13:57:31;1.88;;;1.13;;
32319;SDS011;19080;51.750;5.888;2023-04-03T13:59:57;2.47;;;1.20;;
32319;SDS011;19080;51.750;5.888;2023-04-03T14:02:34;4.85;;;1.35;;
32319;SDS011;19080;51.750;5.888;2023-04-03T14:05:01;3.97;;;1.15;;
32319;SDS011;19080;51.750;5.888;2023-04-03T14:07:29;2.92;;;1.00;;
32319;SDS011;19080;51.750;5.888;2023-04-03T14:09:57;2.92;;;1.20;;
32319;SDS011;19080;51.750;5.888;2023-04-03T14:12:29;1.55;;;1.05;;
32319;SDS011;19080;51.750;5.888;2023-04-03T14:15:00;3.13;;;1.27;;
32319;SDS011;19080;51.750;5.888;2023-04-03T14:17:28;2.47;;;0.93;;
32319;SDS011;19080;51.750;5.888;2023-04-03T14:19:56;2.15;;;0.98;;
32319;SDS011;19080;51.750;5.888;2023-04-03T14:22:25;1.95;;;0.90;;
32319;SDS011;19080;51.750;5.888;2023-04-03T14:24:55;3.25;;;1.15;;
32319;SDS011;19080;51.750;5.888;2023-04-03T14:27:39;3.50;;;1.33;;
32319;SDS011;19080;51.750;5.888;2023-04-03T14:30:11;2.33;;;1.02;;
32319;SDS011;19080;51.750;5.888;2023-04-03T14:32:43;3.08;;;1.30;;
32319;SDS011;19080;51.750;5.888;2023-04-03T14:35:10;4.00;;;1.10;;
32319;SDS011;19080;51.750;5.888;2023-04-03T14:37:36;3.53;;;1.40;;
32319;SDS011;19080;51.750;5.888;2023-04-03T14:40:04;3.03;;;1.27;;
32319;SDS011;19080;51.750;5.888;2023-04-03T14:42:33;3.10;;;1.25;;
32319;SDS011;19080;51.750;5.888;2023-04-03T14:45:04;2.47;;;1.70;;
32319;SDS011;19080;51.750;5.888;2023-04-03T14:47:33;3.45;;;1.35;;
32319;SDS011;19080;51.750;5.888;2023-04-03T14:50:07;2.60;;;1.17;;
32319;SDS011;19080;51.750;5.888;2023-04-03T14:52:35;5.95;;;1.85;;
32319;SDS011;19080;51.750;5.888;2023-04-03T14:55:03;5.18;;;1.20;;
32319;SDS011;19080;51.750;5.888;2023-04-03T14:57:32;2.28;;;1.30;;
32319;SDS011;19080;51.750;5.888;2023-04-03T15:00:00;2.28;;;1.08;;
32319;SDS011;19080;51.750;5.888;2023-04-03T15:02:31;3.08;;;1.35;;
32319;SDS011;19080;51.750;5.888;2023-04-03T15:04:59;2.25;;;0.98;;
32319;SDS011;19080;51.750;5.888;2023-04-03T15:07:30;2.97;;;1.20;;
32319;SDS011;19080;51.750;5.888;2023-04-03T15:10:09;1.67;;;1.13;;
32319;SDS011;19080;51.750;5.888;2023-04-03T15:12:40;3.80;;;1.50;;
32319;SDS011;19080;51.750;5.888;2023-04-03T15:15:08;2.50;;;1.30;;
32319;SDS011;19080;51.750;5.888;2023-04-03T15:17:35;3.58;;;1.45;;
32319;SDS011;19080;51.750;5.888;2023-04-03T15:20:02;8.38;;;1.60;;
32319;SDS011;19080;51.750;5.888;2023-04-03T15:22:38;3.13;;;1.10;;
32319;SDS011;19080;51.750;5.888;2023-04-03T15:25:05;1.77;;;1.02;;
32319;SDS011;19080;51.750;5.888;2023-04-03T15:27:32;3.20;;;1.25;;
32319;SDS011;19080;51.750;5.888;2023-04-03T15:29:59;3.17;;;1.20;;
32319;SDS011;19080;51.750;5.888;2023-04-03T15:32:25;3.80;;;1.52;;
32319;SDS011;19080;51.750;5.888;2023-04-03T15:34:54;1.48;;;1.10;;
32319;SDS011;19080;51.750;5.888;2023-04-03T15:37:22;7.53;;;1.52;;
32319;SDS011;19080;51.750;5.888;2023-04-03T15:39:49;2.67;;;1.60;;
32319;SDS011;19080;51.750;5.888;2023-04-03T15:42:16;3.63;;;1.27;;
32319;SDS011;19080;51.750;5.888;2023-04-03T15:44:42;3.50;;;1.65;;
32319;SDS011;19080;51.750;5.888;2023-04-03T15:47:09;2.75;;;1.50;;
32319;SDS011;19080;51.750;5.888;2023-04-03T15:49:36;2.58;;;1.40;;
32319;SDS011;19080;51.750;5.888;2023-04-03T15:52:04;3.40;;;1.15;;
32319;SDS011;19080;51.750;5.888;2023-04-03T15:54:31;4.50;;;1.50;;
32319;SDS011;19080;51.750;5.888;2023-04-03T15:56:58;3.28;;;1.65;;
32319;SDS011;19080;51.750;5.888;2023-04-03T15:59:24;4.15;;;1.30;;
32319;SDS011;19080;51.750;5.888;2023-04-03T16:01:51;4.78;;;1.58;;
32319;SDS011;19080;51.750;5.888;2023-04-03T16:04:19;4.68;;;1.27;;
32319;SDS011;19080;51.750;5.888;2023-04-03T16:06:47;3.00;;;1.27;;
32319;SDS011;19080;51.750;5.888;2023-04-03T16:09:15;3.80;;;1.17;;
32319;SDS011;19080;51.750;5.888;2023-04-03T16:11:41;2.22;;;1.13;;
32319;SDS011;19080;51.750;5.888;2023-04-03T16:14:09;1.85;;;1.27;;
32319;SDS011;19080;51.750;5.888;2023-04-03T16:16:36;2.47;;;1.30;;
32319;SDS011;19080;51.750;5.888;2023-04-03T16:19:04;3.95;;;1.27;;
32319;SDS011;19080;51.750;5.888;2023-04-03T16:21:32;2.90;;;1.38;;
32319;SDS011;19080;51.750;5.888;2023-04-03T16:23:59;2.45;;;1.23;;
32319;SDS011;19080;51.750;5.888;2023-04-03T16:26:27;2.63;;;1.52;;
32319;SDS011;19080;51.750;5.888;2023-04-03T16:28:53;2.22;;;1.10;;
32319;SDS011;19080;51.750;5.888;2023-04-03T16:31:21;2.97;;;1.50;;
32319;SDS011;19080;51.750;5.888;2023-04-03T16:33:49;4.63;;;1.95;;
32319;SDS011;19080;51.750;5.888;2023-04-03T16:36:16;4.20;;;1.33;;
32319;SDS011;19080;51.750;5.888;2023-04-03T16:38:42;3.75;;;1.48;;
32319;SDS011;19080;51.750;5.888;2023-04-03T16:41:09;2.85;;;1.25;;
32319;SDS011;19080;51.750;5.888;2023-04-03T16:43:36;4.70;;;1.63;;
32319;SDS011;19080;51.750;5.888;2023-04-03T16:46:03;3.15;;;1.35;;
32319;SDS011;19080;51.750;5.888;2023-04-03T16:48:30;2.63;;;1.30;;
32319;SDS011;19080;51.750;5.888;2023-04-03T16:50:57;2.45;;;1.38;;
32319;SDS011;19080;51.750;5.888;2023-04-03T16:53:24;5.15;;;1.30;;